sensor_id;sensor_type;location;lat;lon;timestamp;P1;durP1;ratioP1;P2;durP2;ratioP2
29776;SDS011;16677;52.224;7.484;2022-09-17T00:01:17;13.33;;;2.63;;
29776;SDS011;16677;52.224;7.484;2022-09-17T00:03:52;14.33;;;2.47;;
29776;SDS011;16677;52.224;7.484;2022-09-17T00:06:24;16.30;;;3.13;;
29776;SDS011;16677;52.224;7.484;2022-09-17T00:08:52;11.30;;;3.23;;
29776;SDS011;16677;52.224;7.484;2022-09-17T00:11:21;13.33;;;2.80;;
29776;SDS011;16677;52.224;7.484;2022-09-17T00:13:51;18.67;;;2.70;;
29776;SDS011;16677;52.224;7.484;2022-09-17T00:16:32;12.20;;;2.90;;
29776;SDS011;16677;52.224;7.484;2022-09-17T00:19:04;13.53;;;3.30;;
29776;SDS011;16677;52.224;7.484;2022-09-17T00:21:32;13.70;;;2.80;;
29776;SDS011;16677;52.224;7.484;2022-09-17T00:24:00;12.47;;;3.10;;
29776;SDS011;16677;52.224;7.484;2022-09-17T00:26:30;11.40;;;2.90;;
29776;SDS011;16677;52.224;7.484;2022-09-17T00:28:57;12.43;;;3.10;;
29776;SDS011;16677;52.224;7.484;2022-09-17T00:31:28;12.67;;;2.80;;
29776;SDS011;16677;52.224;7.484;2022-09-17T00:33:59;14.90;;;3.60;;
29776;SDS011;16677;52.224;7.484;2022-09-17T00:36:27;15.70;;;2.90;;
29776;SDS011;16677;52.224;7.484;2022-09-17T00:38:56;15.30;;;3.70;;
29776;SDS011;16677;52.224;7.484;2022-09-17T00:41:28;14.37;;;3.63;;
29776;SDS011;16677;52.224;7.484;2022-09-17T00:43:57;13.50;;;3.10;;
29776;SDS011;16677;52.224;7.484;2022-09-17T00:46:36;15.30;;;3.00;;
29776;SDS011;16677;52.224;7.484;2022-09-17T00:51:50;9.93;;;2.90;;
29776;SDS011;16677;52.224;7.484;2022-09-17T00:54:26;14.77;;;3.83;;
29776;SDS011;16677;52.224;7.484;2022-09-17T00:56:54;12.90;;;3.03;;
29776;SDS011;16677;52.224;7.484;2022-09-17T00:59:22;16.70;;;3.20;;
29776;SDS011;16677;52.224;7.484;2022-09-17T01:01:49;13.43;;;3.50;;
29776;SDS011;16677;52.224;7.484;2022-09-17T01:04:17;12.83;;;2.80;;
29776;SDS011;16677;52.224;7.484;2022-09-17T01:09:56;19.47;;;3.10;;
29776;SDS011;16677;52.224;7.484;2022-09-17T01:37:29;16.63;;;3.60;;
29776;SDS011;16677;52.224;7.484;2022-09-17T01:46:32;13.23;;;2.83;;
29776;SDS011;16677;52.224;7.484;2022-09-17T01:49:18;17.60;;;3.80;;
29776;SDS011;16677;52.224;7.484;2022-09-17T01:51:52;16.20;;;3.20;;
29776;SDS011;16677;52.224;7.484;2022-09-17T01:54:24;13.30;;;3.23;;
29776;SDS011;16677;52.224;7.484;2022-09-17T01:57:08;15.07;;;3.30;;
29776;SDS011;16677;52.224;7.484;2022-09-17T01:59:48;15.07;;;2.70;;
29776;SDS011;16677;52.224;7.484;2022-09-17T02:07:51;11.80;;;3.73;;
29776;SDS011;16677;52.224;7.484;2022-09-17T02:10:24;14.73;;;3.07;;
29776;SDS011;16677;52.224;7.484;2022-09-17T02:13:04;21.47;;;3.30;;
29776;SDS011;16677;52.224;7.484;2022-09-17T02:15:39;14.93;;;3.13;;
29776;SDS011;16677;52.224;7.484;2022-09-17T02:20:45;15.27;;;3.10;;
29776;SDS011;16677;52.224;7.484;2022-09-17T02:23:20;10.30;;;2.87;;
29776;SDS011;16677;52.224;7.484;2022-09-17T02:26:03;13.20;;;3.10;;
29776;SDS011;16677;52.224;7.484;2022-09-17T02:28:43;12.97;;;2.73;;
29776;SDS011;16677;52.224;7.484;2022-09-17T02:31:26;12.17;;;2.80;;
29776;SDS011;16677;52.224;7.484;2022-09-17T02:33:56;22.10;;;3.90;;
29776;SDS011;16677;52.224;7.484;2022-09-17T02:36:40;16.23;;;3.27;;
29776;SDS011;16677;52.224;7.484;2022-09-17T02:39:07;16.73;;;3.73;;
29776;SDS011;16677;52.224;7.484;2022-09-17T02:41:37;15.20;;;3.80;;
29776;SDS011;16677;52.224;7.484;2022-09-17T02:44:25;14.23;;;3.40;;
29776;SDS011;16677;52.224;7.484;2022-09-17T02:58:45;12.17;;;2.90;;
29776;SDS011;16677;52.224;7.484;2022-09-17T03:01:27;16.80;;;3.07;;
29776;SDS011;16677;52.224;7.484;2022-09-17T03:04:00;14.67;;;3.03;;
29776;SDS011;16677;52.224;7.484;2022-09-17T03:06:30;22.67;;;3.63;;
29776;SDS011;16677;52.224;7.484;2022-09-17T03:09:03;14.73;;;3.40;;
29776;SDS011;16677;52.224;7.484;2022-09-17T03:11:31;10.80;;;3.07;;
29776;SDS011;16677;52.224;7.484;2022-09-17T03:13:58;16.57;;;3.07;;
29776;SDS011;16677;52.224;7.484;2022-09-17T03:16:31;23.27;;;3.93;;
29776;SDS011;16677;52.224;7.484;2022-09-17T03:18:59;22.40;;;3.67;;
29776;SDS011;16677;52.224;7.484;2022-09-17T03:21:29;15.43;;;3.67;;
29776;SDS011;16677;52.224;7.484;2022-09-17T03:23:57;19.83;;;4.87;;
29776;SDS011;16677;52.224;7.484;2022-09-17T03:26:40;16.33;;;2.90;;
29776;SDS011;16677;52.224;7.484;2022-09-17T03:29:16;16.97;;;3.20;;
29776;SDS011;16677;52.224;7.484;2022-09-17T03:31:45;16.20;;;3.20;;
29776;SDS011;16677;52.224;7.484;2022-09-17T03:34:14;17.73;;;4.17;;
29776;SDS011;16677;52.224;7.484;2022-09-17T03:36:56;15.97;;;2.90;;
29776;SDS011;16677;52.224;7.484;2022-09-17T03:39:25;10.10;;;3.27;;
29776;SDS011;16677;52.224;7.484;2022-09-17T03:41:55;11.87;;;3.20;;
29776;SDS011;16677;52.224;7.484;2022-09-17T03:44:24;16.10;;;3.43;;
29776;SDS011;16677;52.224;7.484;2022-09-17T03:46:53;14.93;;;3.50;;
29776;SDS011;16677;52.224;7.484;2022-09-17T03:49:21;14.97;;;3.47;;
29776;SDS011;16677;52.224;7.484;2022-09-17T03:51:50;10.40;;;2.50;;
29776;SDS011;16677;52.224;7.484;2022-09-17T03:54:20;12.77;;;2.83;;
29776;SDS011;16677;52.224;7.484;2022-09-17T03:56:50;16.73;;;2.70;;
29776;SDS011;16677;52.224;7.484;2022-09-17T03:59:19;10.33;;;3.53;;
29776;SDS011;16677;52.224;7.484;2022-09-17T04:01:46;20.47;;;3.67;;
29776;SDS011;16677;52.224;7.484;2022-09-17T04:04:15;15.70;;;3.43;;
29776;SDS011;16677;52.224;7.484;2022-09-17T04:06:56;15.03;;;3.57;;
29776;SDS011;16677;52.224;7.484;2022-09-17T04:09:26;13.03;;;3.20;;
29776;SDS011;16677;52.224;7.484;2022-09-17T04:11:56;11.60;;;2.73;;
29776;SDS011;16677;52.224;7.484;2022-09-17T04:14:27;12.67;;;3.33;;
29776;SDS011;16677;52.224;7.484;2022-09-17T04:20:02;17.90;;;3.87;;
29776;SDS011;16677;52.224;7.484;2022-09-17T04:22:32;18.37;;;3.03;;
29776;SDS011;16677;52.224;7.484;2022-09-17T04:25:03;14.27;;;3.00;;
29776;SDS011;16677;52.224;7.484;2022-09-17T04:27:32;15.07;;;3.10;;
29776;SDS011;16677;52.224;7.484;2022-09-17T04:30:00;12.03;;;3.13;;
29776;SDS011;16677;52.224;7.484;2022-09-17T04:32:35;14.57;;;2.73;;
29776;SDS011;16677;52.224;7.484;2022-09-17T04:35:02;13.47;;;3.03;;
29776;SDS011;16677;52.224;7.484;2022-09-17T04:37:29;16.13;;;2.90;;
29776;SDS011;16677;52.224;7.484;2022-09-17T04:39:57;12.47;;;2.83;;
29776;SDS011;16677;52.224;7.484;2022-09-17T04:42:24;12.97;;;2.93;;
29776;SDS011;16677;52.224;7.484;2022-09-17T04:44:51;15.63;;;2.70;;
29776;SDS011;16677;52.224;7.484;2022-09-17T04:47:20;17.03;;;3.03;;
29776;SDS011;16677;52.224;7.484;2022-09-17T04:50:08;11.40;;;3.03;;
29776;SDS011;16677;52.224;7.484;2022-09-17T04:52:43;12.90;;;3.07;;
29776;SDS011;16677;52.224;7.484;2022-09-17T04:55:16;12.33;;;3.27;;
29776;SDS011;16677;52.224;7.484;2022-09-17T04:57:51;15.93;;;3.67;;
29776;SDS011;16677;52.224;7.484;2022-09-17T05:00:20;16.10;;;3.40;;
29776;SDS011;16677;52.224;7.484;2022-09-17T05:02:56;15.03;;;2.53;;
29776;SDS011;16677;52.224;7.484;2022-09-17T05:05:25;16.63;;;3.47;;
29776;SDS011;16677;52.224;7.484;2022-09-17T05:07:54;10.53;;;3.07;;
29776;SDS011;16677;52.224;7.484;2022-09-17T05:10:22;10.40;;;2.73;;
29776;SDS011;16677;52.224;7.484;2022-09-17T05:12:53;15.47;;;2.70;;
29776;SDS011;16677;52.224;7.484;2022-09-17T05:15:24;10.93;;;2.37;;
29776;SDS011;16677;52.224;7.484;2022-09-17T05:17:52;10.67;;;2.40;;
29776;SDS011;16677;52.224;7.484;2022-09-17T05:20:23;11.17;;;3.07;;
29776;SDS011;16677;52.224;7.484;2022-09-17T05:22:50;9.33;;;2.37;;
29776;SDS011;16677;52.224;7.484;2022-09-17T05:25:18;14.47;;;2.97;;
29776;SDS011;16677;52.224;7.484;2022-09-17T05:27:56;8.67;;;2.33;;
29776;SDS011;16677;52.224;7.484;2022-09-17T05:30:23;13.97;;;2.80;;
29776;SDS011;16677;52.224;7.484;2022-09-17T05:33:00;10.67;;;2.30;;
29776;SDS011;16677;52.224;7.484;2022-09-17T05:35:28;11.97;;;2.40;;
29776;SDS011;16677;52.224;7.484;2022-09-17T05:37:57;13.43;;;2.43;;
29776;SDS011;16677;52.224;7.484;2022-09-17T05:40:32;9.40;;;2.40;;
29776;SDS011;16677;52.224;7.484;2022-09-17T05:43:00;10.27;;;2.57;;
29776;SDS011;16677;52.224;7.484;2022-09-17T05:45:32;13.90;;;2.93;;
29776;SDS011;16677;52.224;7.484;2022-09-17T05:48:04;10.03;;;2.53;;
29776;SDS011;16677;52.224;7.484;2022-09-17T05:51:20;10.60;;;2.50;;
29776;SDS011;16677;52.224;7.484;2022-09-17T05:53:47;12.93;;;3.07;;
29776;SDS011;16677;52.224;7.484;2022-09-17T05:56:17;13.93;;;3.00;;
29776;SDS011;16677;52.224;7.484;2022-09-17T05:58:44;7.27;;;2.40;;
29776;SDS011;16677;52.224;7.484;2022-09-17T06:01:21;5.70;;;2.30;;
29776;SDS011;16677;52.224;7.484;2022-09-17T06:03:49;9.47;;;2.43;;
29776;SDS011;16677;52.224;7.484;2022-09-17T06:06:18;14.03;;;2.37;;
29776;SDS011;16677;52.224;7.484;2022-09-17T06:08:45;9.43;;;2.33;;
29776;SDS011;16677;52.224;7.484;2022-09-17T06:11:13;11.83;;;2.20;;
29776;SDS011;16677;52.224;7.484;2022-09-17T06:13:53;12.53;;;2.63;;
29776;SDS011;16677;52.224;7.484;2022-09-17T06:16:23;9.43;;;3.03;;
29776;SDS011;16677;52.224;7.484;2022-09-17T06:18:54;9.17;;;2.50;;
29776;SDS011;16677;52.224;7.484;2022-09-17T06:21:22;6.53;;;2.20;;
29776;SDS011;16677;52.224;7.484;2022-09-17T06:24:01;8.57;;;2.67;;
29776;SDS011;16677;52.224;7.484;2022-09-17T06:26:28;10.47;;;2.50;;
29776;SDS011;16677;52.224;7.484;2022-09-17T06:28:57;12.77;;;2.57;;
29776;SDS011;16677;52.224;7.484;2022-09-17T06:31:25;8.10;;;2.10;;
29776;SDS011;16677;52.224;7.484;2022-09-17T06:33:54;8.17;;;2.27;;
29776;SDS011;16677;52.224;7.484;2022-09-17T06:36:27;12.13;;;2.80;;
29776;SDS011;16677;52.224;7.484;2022-09-17T06:38:54;13.57;;;2.27;;
29776;SDS011;16677;52.224;7.484;2022-09-17T06:41:21;7.60;;;2.20;;
29776;SDS011;16677;52.224;7.484;2022-09-17T06:43:51;9.53;;;2.40;;
29776;SDS011;16677;52.224;7.484;2022-09-17T06:46:20;9.63;;;2.10;;
29776;SDS011;16677;52.224;7.484;2022-09-17T06:48:47;17.27;;;2.60;;
29776;SDS011;16677;52.224;7.484;2022-09-17T06:51:17;7.77;;;2.60;;
29776;SDS011;16677;52.224;7.484;2022-09-17T06:53:45;9.80;;;2.13;;
29776;SDS011;16677;52.224;7.484;2022-09-17T06:56:13;8.80;;;2.17;;
29776;SDS011;16677;52.224;7.484;2022-09-17T06:58:40;7.30;;;2.00;;
29776;SDS011;16677;52.224;7.484;2022-09-17T07:01:10;8.60;;;2.30;;
29776;SDS011;16677;52.224;7.484;2022-09-17T07:03:38;5.23;;;1.80;;
29776;SDS011;16677;52.224;7.484;2022-09-17T07:06:13;9.67;;;2.37;;
29776;SDS011;16677;52.224;7.484;2022-09-17T07:08:43;6.80;;;2.10;;
29776;SDS011;16677;52.224;7.484;2022-09-17T07:11:12;7.27;;;2.03;;
29776;SDS011;16677;52.224;7.484;2022-09-17T07:13:41;7.27;;;2.10;;
29776;SDS011;16677;52.224;7.484;2022-09-17T07:16:09;7.53;;;2.00;;
29776;SDS011;16677;52.224;7.484;2022-09-17T07:18:38;8.10;;;2.27;;
29776;SDS011;16677;52.224;7.484;2022-09-17T07:21:05;8.70;;;2.10;;
29776;SDS011;16677;52.224;7.484;2022-09-17T07:23:34;8.77;;;2.27;;
29776;SDS011;16677;52.224;7.484;2022-09-17T07:26:06;13.00;;;2.70;;
29776;SDS011;16677;52.224;7.484;2022-09-17T07:28:37;6.70;;;1.90;;
29776;SDS011;16677;52.224;7.484;2022-09-17T07:31:06;6.93;;;1.73;;
29776;SDS011;16677;52.224;7.484;2022-09-17T07:33:40;5.00;;;2.37;;
29776;SDS011;16677;52.224;7.484;2022-09-17T07:36:09;7.77;;;2.50;;
29776;SDS011;16677;52.224;7.484;2022-09-17T07:38:37;5.57;;;2.13;;
29776;SDS011;16677;52.224;7.484;2022-09-17T07:41:05;6.40;;;1.97;;
29776;SDS011;16677;52.224;7.484;2022-09-17T07:43:38;8.63;;;2.07;;
29776;SDS011;16677;52.224;7.484;2022-09-17T07:46:06;7.60;;;2.73;;
29776;SDS011;16677;52.224;7.484;2022-09-17T07:48:35;8.03;;;2.40;;
29776;SDS011;16677;52.224;7.484;2022-09-17T07:51:02;6.17;;;2.27;;
29776;SDS011;16677;52.224;7.484;2022-09-17T07:53:29;10.53;;;1.97;;
29776;SDS011;16677;52.224;7.484;2022-09-17T07:55:57;6.03;;;1.73;;
29776;SDS011;16677;52.224;7.484;2022-09-17T07:58:29;8.57;;;2.43;;
29776;SDS011;16677;52.224;7.484;2022-09-17T08:01:02;7.37;;;2.00;;
29776;SDS011;16677;52.224;7.484;2022-09-17T08:03:32;8.73;;;2.80;;
29776;SDS011;16677;52.224;7.484;2022-09-17T08:06:03;8.57;;;1.90;;
29776;SDS011;16677;52.224;7.484;2022-09-17T08:08:32;11.57;;;2.37;;
29776;SDS011;16677;52.224;7.484;2022-09-17T08:11:01;7.77;;;2.27;;
29776;SDS011;16677;52.224;7.484;2022-09-17T08:13:29;9.33;;;2.27;;
29776;SDS011;16677;52.224;7.484;2022-09-17T08:15:59;6.77;;;2.03;;
29776;SDS011;16677;52.224;7.484;2022-09-17T08:18:32;11.17;;;2.30;;
29776;SDS011;16677;52.224;7.484;2022-09-17T08:21:02;7.83;;;2.23;;
29776;SDS011;16677;52.224;7.484;2022-09-17T08:23:30;11.33;;;2.53;;
29776;SDS011;16677;52.224;7.484;2022-09-17T08:25:58;4.20;;;1.60;;
29776;SDS011;16677;52.224;7.484;2022-09-17T08:28:27;7.17;;;1.90;;
29776;SDS011;16677;52.224;7.484;2022-09-17T08:31:06;8.00;;;2.17;;
29776;SDS011;16677;52.224;7.484;2022-09-17T08:33:35;9.57;;;1.97;;
29776;SDS011;16677;52.224;7.484;2022-09-17T08:36:03;7.40;;;2.00;;
29776;SDS011;16677;52.224;7.484;2022-09-17T08:38:31;7.87;;;1.90;;
29776;SDS011;16677;52.224;7.484;2022-09-17T08:46:22;3.37;;;1.70;;
29776;SDS011;16677;52.224;7.484;2022-09-17T08:54:13;7.03;;;1.70;;
29776;SDS011;16677;52.224;7.484;2022-09-17T08:56:46;8.20;;;1.80;;
29776;SDS011;16677;52.224;7.484;2022-09-17T08:59:26;3.63;;;1.30;;
29776;SDS011;16677;52.224;7.484;2022-09-17T09:02:13;5.37;;;1.73;;
29776;SDS011;16677;52.224;7.484;2022-09-17T09:05:04;3.73;;;1.47;;
29776;SDS011;16677;52.224;7.484;2022-09-17T09:07:37;6.33;;;1.53;;
29776;SDS011;16677;52.224;7.484;2022-09-17T09:10:11;5.53;;;1.80;;
29776;SDS011;16677;52.224;7.484;2022-09-17T09:12:43;6.20;;;1.53;;
29776;SDS011;16677;52.224;7.484;2022-09-17T09:18:03;4.53;;;1.40;;
29776;SDS011;16677;52.224;7.484;2022-09-17T09:20:52;5.67;;;1.37;;
29776;SDS011;16677;52.224;7.484;2022-09-17T09:26:43;3.30;;;1.40;;
29776;SDS011;16677;52.224;7.484;2022-09-17T09:34:57;4.43;;;1.43;;
29776;SDS011;16677;52.224;7.484;2022-09-17T09:37:29;4.10;;;1.40;;
29776;SDS011;16677;52.224;7.484;2022-09-17T09:40:12;7.50;;;1.40;;
29776;SDS011;16677;52.224;7.484;2022-09-17T09:42:47;4.67;;;1.73;;
29776;SDS011;16677;52.224;7.484;2022-09-17T09:45:30;5.10;;;1.80;;
29776;SDS011;16677;52.224;7.484;2022-09-17T09:48:22;8.03;;;1.47;;
29776;SDS011;16677;52.224;7.484;2022-09-17T09:51:03;3.67;;;1.20;;
29776;SDS011;16677;52.224;7.484;2022-09-17T09:54:09;5.40;;;1.50;;
29776;SDS011;16677;52.224;7.484;2022-09-17T09:56:46;4.00;;;1.03;;
29776;SDS011;16677;52.224;7.484;2022-09-17T09:59:24;2.90;;;1.30;;
29776;SDS011;16677;52.224;7.484;2022-09-17T10:01:52;4.10;;;1.50;;
29776;SDS011;16677;52.224;7.484;2022-09-17T10:06:50;2.67;;;1.20;;
29776;SDS011;16677;52.224;7.484;2022-09-17T10:09:19;2.43;;;1.00;;
29776;SDS011;16677;52.224;7.484;2022-09-17T10:14:34;1.97;;;1.20;;
29776;SDS011;16677;52.224;7.484;2022-09-17T10:22:29;2.40;;;0.90;;
29776;SDS011;16677;52.224;7.484;2022-09-17T10:24:59;3.83;;;1.20;;
29776;SDS011;16677;52.224;7.484;2022-09-17T10:27:27;3.27;;;1.50;;
29776;SDS011;16677;52.224;7.484;2022-09-17T10:30:03;3.70;;;1.23;;
29776;SDS011;16677;52.224;7.484;2022-09-17T10:32:41;2.77;;;1.20;;
29776;SDS011;16677;52.224;7.484;2022-09-17T10:37:42;2.40;;;0.90;;
29776;SDS011;16677;52.224;7.484;2022-09-17T10:42:44;6.90;;;1.10;;
29776;SDS011;16677;52.224;7.484;2022-09-17T10:45:25;6.03;;;1.20;;
29776;SDS011;16677;52.224;7.484;2022-09-17T10:47:54;5.33;;;1.23;;
29776;SDS011;16677;52.224;7.484;2022-09-17T10:50:27;3.50;;;0.83;;
29776;SDS011;16677;52.224;7.484;2022-09-17T10:52:57;4.10;;;1.20;;
29776;SDS011;16677;52.224;7.484;2022-09-17T10:55:37;1.53;;;0.80;;
29776;SDS011;16677;52.224;7.484;2022-09-17T10:58:23;4.20;;;1.10;;
29776;SDS011;16677;52.224;7.484;2022-09-17T11:01:01;3.53;;;1.10;;
29776;SDS011;16677;52.224;7.484;2022-09-17T11:04:09;2.23;;;0.90;;
29776;SDS011;16677;52.224;7.484;2022-09-17T11:09:19;3.87;;;1.33;;
29776;SDS011;16677;52.224;7.484;2022-09-17T11:12:15;2.10;;;1.00;;
29776;SDS011;16677;52.224;7.484;2022-09-17T11:25:49;4.03;;;1.30;;
29776;SDS011;16677;52.224;7.484;2022-09-17T11:36:59;2.90;;;1.30;;
29776;SDS011;16677;52.224;7.484;2022-09-17T11:39:42;5.20;;;1.47;;
29776;SDS011;16677;52.224;7.484;2022-09-17T11:42:17;4.00;;;1.50;;
29776;SDS011;16677;52.224;7.484;2022-09-17T11:44:51;5.20;;;1.50;;
29776;SDS011;16677;52.224;7.484;2022-09-17T11:47:36;5.90;;;1.70;;
29776;SDS011;16677;52.224;7.484;2022-09-17T11:50:20;7.23;;;1.50;;
29776;SDS011;16677;52.224;7.484;2022-09-17T11:53:09;5.53;;;1.40;;
29776;SDS011;16677;52.224;7.484;2022-09-17T11:55:51;4.80;;;1.10;;
29776;SDS011;16677;52.224;7.484;2022-09-17T11:58:39;2.57;;;1.20;;
29776;SDS011;16677;52.224;7.484;2022-09-17T12:01:11;3.77;;;1.53;;
29776;SDS011;16677;52.224;7.484;2022-09-17T12:03:57;4.30;;;1.10;;
29776;SDS011;16677;52.224;7.484;2022-09-17T12:06:35;3.67;;;1.20;;
29776;SDS011;16677;52.224;7.484;2022-09-17T12:09:20;6.17;;;1.27;;
29776;SDS011;16677;52.224;7.484;2022-09-17T12:15:14;3.33;;;1.10;;
29776;SDS011;16677;52.224;7.484;2022-09-17T12:17:52;5.60;;;1.20;;
29776;SDS011;16677;52.224;7.484;2022-09-17T12:20:59;3.27;;;1.00;;
29776;SDS011;16677;52.224;7.484;2022-09-17T12:23:32;2.83;;;1.10;;
29776;SDS011;16677;52.224;7.484;2022-09-17T12:26:11;2.03;;;0.80;;
29776;SDS011;16677;52.224;7.484;2022-09-17T12:31:49;3.50;;;0.90;;
29776;SDS011;16677;52.224;7.484;2022-09-17T12:34:27;3.30;;;0.90;;
29776;SDS011;16677;52.224;7.484;2022-09-17T12:42:32;5.43;;;1.30;;
29776;SDS011;16677;52.224;7.484;2022-09-17T12:59:03;4.77;;;1.47;;
29776;SDS011;16677;52.224;7.484;2022-09-17T13:01:37;4.60;;;1.67;;
29776;SDS011;16677;52.224;7.484;2022-09-17T13:21:59;9.00;;;2.10;;
29776;SDS011;16677;52.224;7.484;2022-09-17T13:24:29;39.10;;;3.03;;
29776;SDS011;16677;52.224;7.484;2022-09-17T13:26:57;5.00;;;1.43;;
29776;SDS011;16677;52.224;7.484;2022-09-17T13:35:44;4.20;;;1.57;;
29776;SDS011;16677;52.224;7.484;2022-09-17T13:42:49;9.57;;;2.03;;
29776;SDS011;16677;52.224;7.484;2022-09-17T13:45:21;3.60;;;1.13;;
29776;SDS011;16677;52.224;7.484;2022-09-17T13:50:31;5.00;;;1.53;;
29776;SDS011;16677;52.224;7.484;2022-09-17T13:53:05;5.20;;;1.93;;
29776;SDS011;16677;52.224;7.484;2022-09-17T13:55:56;7.03;;;1.90;;
29776;SDS011;16677;52.224;7.484;2022-09-17T13:58:24;4.90;;;1.80;;
29776;SDS011;16677;52.224;7.484;2022-09-17T14:13:49;6.07;;;1.67;;
29776;SDS011;16677;52.224;7.484;2022-09-17T14:32:51;6.93;;;1.70;;
29776;SDS011;16677;52.224;7.484;2022-09-17T14:41:06;8.47;;;2.17;;
29776;SDS011;16677;52.224;7.484;2022-09-17T14:46:53;5.93;;;1.87;;
29776;SDS011;16677;52.224;7.484;2022-09-17T14:49:27;5.10;;;1.40;;
29776;SDS011;16677;52.224;7.484;2022-09-17T14:51:56;6.53;;;2.20;;
29776;SDS011;16677;52.224;7.484;2022-09-17T14:54:24;6.63;;;1.93;;
29776;SDS011;16677;52.224;7.484;2022-09-17T14:57:01;10.73;;;2.50;;
29776;SDS011;16677;52.224;7.484;2022-09-17T14:59:48;5.87;;;2.07;;
29776;SDS011;16677;52.224;7.484;2022-09-17T15:02:28;8.43;;;2.13;;
29776;SDS011;16677;52.224;7.484;2022-09-17T15:04:55;5.27;;;2.27;;
29776;SDS011;16677;52.224;7.484;2022-09-17T15:07:23;7.33;;;2.20;;
29776;SDS011;16677;52.224;7.484;2022-09-17T15:09:51;6.23;;;2.10;;
29776;SDS011;16677;52.224;7.484;2022-09-17T15:12:22;5.67;;;2.00;;
29776;SDS011;16677;52.224;7.484;2022-09-17T15:14:52;9.97;;;2.70;;
29776;SDS011;16677;52.224;7.484;2022-09-17T15:17:21;8.93;;;2.50;;
29776;SDS011;16677;52.224;7.484;2022-09-17T15:19:50;9.10;;;2.40;;
29776;SDS011;16677;52.224;7.484;2022-09-17T15:22:21;7.33;;;2.63;;
29776;SDS011;16677;52.224;7.484;2022-09-17T15:24:56;10.60;;;2.10;;
29776;SDS011;16677;52.224;7.484;2022-09-17T15:27:54;7.90;;;1.77;;
29776;SDS011;16677;52.224;7.484;2022-09-17T15:30:23;7.47;;;2.20;;
29776;SDS011;16677;52.224;7.484;2022-09-17T15:32:52;9.93;;;2.27;;
29776;SDS011;16677;52.224;7.484;2022-09-17T15:35:27;8.43;;;2.33;;
29776;SDS011;16677;52.224;7.484;2022-09-17T15:38:02;6.77;;;2.17;;
29776;SDS011;16677;52.224;7.484;2022-09-17T15:40:51;6.97;;;2.00;;
29776;SDS011;16677;52.224;7.484;2022-09-17T15:43:29;11.10;;;3.27;;
29776;SDS011;16677;52.224;7.484;2022-09-17T15:48:48;5.63;;;1.53;;
29776;SDS011;16677;52.224;7.484;2022-09-17T15:51:26;2.50;;;1.23;;
29776;SDS011;16677;52.224;7.484;2022-09-17T15:53:57;5.57;;;1.30;;
29776;SDS011;16677;52.224;7.484;2022-09-17T15:56:26;4.47;;;1.50;;
29776;SDS011;16677;52.224;7.484;2022-09-17T15:59:00;3.40;;;1.43;;
29776;SDS011;16677;52.224;7.484;2022-09-17T16:04:14;4.97;;;1.37;;
29776;SDS011;16677;52.224;7.484;2022-09-17T16:06:47;4.87;;;1.70;;
29776;SDS011;16677;52.224;7.484;2022-09-17T16:12:03;4.17;;;1.80;;
29776;SDS011;16677;52.224;7.484;2022-09-17T16:14:30;7.03;;;1.93;;
29776;SDS011;16677;52.224;7.484;2022-09-17T16:16:57;7.30;;;2.10;;
29776;SDS011;16677;52.224;7.484;2022-09-17T16:19:24;7.60;;;1.60;;
29776;SDS011;16677;52.224;7.484;2022-09-17T16:21:51;5.33;;;1.47;;
29776;SDS011;16677;52.224;7.484;2022-09-17T16:24:18;7.53;;;1.97;;
29776;SDS011;16677;52.224;7.484;2022-09-17T16:26:45;6.17;;;1.70;;
29776;SDS011;16677;52.224;7.484;2022-09-17T16:29:14;3.93;;;1.40;;
29776;SDS011;16677;52.224;7.484;2022-09-17T16:31:42;4.10;;;1.30;;
29776;SDS011;16677;52.224;7.484;2022-09-17T16:34:10;6.30;;;1.60;;
29776;SDS011;16677;52.224;7.484;2022-09-17T16:36:37;6.50;;;1.80;;
29776;SDS011;16677;52.224;7.484;2022-09-17T16:39:04;7.17;;;2.13;;
29776;SDS011;16677;52.224;7.484;2022-09-17T16:41:31;8.53;;;1.63;;
29776;SDS011;16677;52.224;7.484;2022-09-17T16:43:58;6.00;;;1.73;;
29776;SDS011;16677;52.224;7.484;2022-09-17T16:46:25;4.87;;;1.67;;
29776;SDS011;16677;52.224;7.484;2022-09-17T16:48:52;7.27;;;2.17;;
29776;SDS011;16677;52.224;7.484;2022-09-17T16:51:19;5.47;;;1.33;;
29776;SDS011;16677;52.224;7.484;2022-09-17T16:53:46;2.57;;;1.40;;
29776;SDS011;16677;52.224;7.484;2022-09-17T16:56:13;3.70;;;1.30;;
29776;SDS011;16677;52.224;7.484;2022-09-17T16:58:40;5.50;;;1.97;;
29776;SDS011;16677;52.224;7.484;2022-09-17T17:01:08;6.33;;;1.97;;
29776;SDS011;16677;52.224;7.484;2022-09-17T17:03:36;3.93;;;1.70;;
29776;SDS011;16677;52.224;7.484;2022-09-17T17:06:04;4.10;;;1.37;;
29776;SDS011;16677;52.224;7.484;2022-09-17T17:08:31;5.03;;;1.57;;
29776;SDS011;16677;52.224;7.484;2022-09-17T17:10:59;3.33;;;1.50;;
29776;SDS011;16677;52.224;7.484;2022-09-17T17:13:26;3.60;;;1.20;;
29776;SDS011;16677;52.224;7.484;2022-09-17T17:15:53;3.13;;;1.50;;
29776;SDS011;16677;52.224;7.484;2022-09-17T17:18:21;5.57;;;1.50;;
29776;SDS011;16677;52.224;7.484;2022-09-17T17:20:48;4.10;;;1.77;;
29776;SDS011;16677;52.224;7.484;2022-09-17T17:23:15;3.27;;;1.60;;
29776;SDS011;16677;52.224;7.484;2022-09-17T17:25:42;4.77;;;1.70;;
29776;SDS011;16677;52.224;7.484;2022-09-17T17:28:09;6.97;;;1.90;;
29776;SDS011;16677;52.224;7.484;2022-09-17T17:30:36;5.57;;;2.10;;
29776;SDS011;16677;52.224;7.484;2022-09-17T17:33:03;4.30;;;2.17;;
29776;SDS011;16677;52.224;7.484;2022-09-17T17:35:30;6.33;;;1.97;;
29776;SDS011;16677;52.224;7.484;2022-09-17T17:37:57;6.70;;;1.97;;
29776;SDS011;16677;52.224;7.484;2022-09-17T17:40:24;4.57;;;1.53;;
29776;SDS011;16677;52.224;7.484;2022-09-17T17:42:52;4.27;;;1.70;;
29776;SDS011;16677;52.224;7.484;2022-09-17T17:45:19;5.70;;;1.87;;
29776;SDS011;16677;52.224;7.484;2022-09-17T17:47:47;2.20;;;1.43;;
29776;SDS011;16677;52.224;7.484;2022-09-17T17:50:14;5.60;;;1.70;;
29776;SDS011;16677;52.224;7.484;2022-09-17T17:52:41;4.00;;;2.00;;
29776;SDS011;16677;52.224;7.484;2022-09-17T17:55:13;6.70;;;1.90;;
29776;SDS011;16677;52.224;7.484;2022-09-17T17:57:41;4.47;;;1.93;;
29776;SDS011;16677;52.224;7.484;2022-09-17T18:00:08;6.23;;;2.50;;
29776;SDS011;16677;52.224;7.484;2022-09-17T18:02:37;4.80;;;2.03;;
29776;SDS011;16677;52.224;7.484;2022-09-17T18:05:05;7.93;;;2.57;;
29776;SDS011;16677;52.224;7.484;2022-09-17T18:07:32;5.73;;;2.27;;
29776;SDS011;16677;52.224;7.484;2022-09-17T18:09:59;5.50;;;2.10;;
29776;SDS011;16677;52.224;7.484;2022-09-17T18:12:26;5.60;;;3.83;;
29776;SDS011;16677;52.224;7.484;2022-09-17T18:14:53;7.50;;;3.50;;
29776;SDS011;16677;52.224;7.484;2022-09-17T18:17:20;6.37;;;2.30;;
29776;SDS011;16677;52.224;7.484;2022-09-17T18:19:47;8.70;;;2.43;;
29776;SDS011;16677;52.224;7.484;2022-09-17T18:22:14;6.50;;;1.77;;
29776;SDS011;16677;52.224;7.484;2022-09-17T18:24:41;5.70;;;1.87;;
29776;SDS011;16677;52.224;7.484;2022-09-17T18:27:08;6.80;;;1.77;;
29776;SDS011;16677;52.224;7.484;2022-09-17T18:29:35;7.03;;;1.73;;
29776;SDS011;16677;52.224;7.484;2022-09-17T18:32:02;4.77;;;1.70;;
29776;SDS011;16677;52.224;7.484;2022-09-17T18:34:29;8.27;;;2.00;;
29776;SDS011;16677;52.224;7.484;2022-09-17T18:36:57;6.90;;;1.67;;
29776;SDS011;16677;52.224;7.484;2022-09-17T18:39:24;8.53;;;1.83;;
29776;SDS011;16677;52.224;7.484;2022-09-17T18:42:11;5.43;;;1.90;;
29776;SDS011;16677;52.224;7.484;2022-09-17T18:44:38;7.17;;;1.90;;
29776;SDS011;16677;52.224;7.484;2022-09-17T18:47:05;8.17;;;2.40;;
29776;SDS011;16677;52.224;7.484;2022-09-17T18:49:32;9.33;;;2.00;;
29776;SDS011;16677;52.224;7.484;2022-09-17T18:51:58;8.23;;;2.07;;
29776;SDS011;16677;52.224;7.484;2022-09-17T18:54:25;7.53;;;1.97;;
29776;SDS011;16677;52.224;7.484;2022-09-17T18:56:52;6.57;;;1.73;;